createdAt,value
2023-05-21T00:02:23.460Z,99.90
2023-05-21T00:04:52.507Z,99.90
2023-05-21T00:07:23.363Z,99.90
2023-05-21T00:09:52.975Z,99.90
2023-05-21T00:12:21.207Z,99.90
2023-05-21T00:14:49.536Z,99.90
2023-05-21T00:17:18.017Z,99.90
2023-05-21T00:19:46.269Z,99.90
2023-05-21T00:22:15.998Z,99.90
2023-05-21T00:24:46.044Z,99.90
2023-05-21T00:27:14.460Z,99.90
2023-05-21T00:29:44.503Z,99.90
2023-05-21T00:32:12.870Z,99.90
2023-05-21T00:34:42.257Z,99.90
2023-05-21T00:37:10.988Z,99.90
2023-05-21T00:39:39.205Z,99.90
2023-05-21T00:42:12.309Z,99.90
2023-05-21T00:44:41.318Z,99.90
2023-05-21T00:47:09.544Z,99.90
2023-05-21T00:49:37.798Z,99.90
2023-05-21T00:52:07.386Z,99.90
2023-05-21T00:54:35.724Z,99.90
2023-05-21T00:57:05.861Z,99.90
2023-05-21T00:59:35.704Z,99.90
2023-05-21T01:02:06.720Z,99.90
2023-05-21T01:04:34.993Z,99.90
2023-05-21T01:07:03.242Z,99.90
2023-05-21T01:09:31.536Z,99.90
2023-05-21T01:12:01.067Z,99.90
2023-05-21T01:14:29.525Z,99.90
2023-05-21T01:17:02.334Z,99.90
2023-05-21T01:19:32.530Z,99.90
2023-05-21T01:22:05.408Z,99.90
2023-05-21T01:24:35.086Z,99.90
2023-05-21T01:27:06.595Z,99.90
2023-05-21T01:29:34.970Z,99.90
2023-05-21T01:32:11.546Z,99.90
2023-05-21T01:34:47.096Z,99.90
2023-05-21T01:37:19.134Z,99.90
2023-05-21T01:39:55.088Z,99.90
2023-05-21T01:42:25.155Z,99.90
2023-05-21T01:44:56.131Z,99.90
2023-05-21T01:47:25.518Z,99.90
2023-05-21T01:49:54.001Z,99.90
2023-05-21T01:52:22.552Z,99.90
2023-05-21T01:54:54.423Z,99.90
2023-05-21T01:57:22.928Z,99.90
2023-05-21T01:59:53.340Z,99.90
2023-05-21T02:02:21.849Z,99.90
2023-05-21T02:04:50.255Z,99.90
2023-05-21T02:07:19.973Z,99.90
2023-05-21T02:09:48.211Z,99.90
2023-05-21T02:12:18.006Z,99.90
2023-05-21T02:14:50.325Z,99.90
2023-05-21T02:17:18.614Z,99.90
2023-05-21T02:19:46.832Z,99.90
2023-05-21T02:22:15.118Z,99.90
2023-05-21T02:24:43.836Z,99.90
2023-05-21T02:27:13.680Z,99.90
2023-05-21T02:29:43.328Z,99.90
2023-05-21T02:32:11.779Z,99.90
2023-05-21T02:34:42.462Z,99.90
2023-05-21T02:37:10.932Z,99.90
2023-05-21T02:39:39.141Z,99.90
2023-05-21T02:42:07.533Z,99.90
2023-05-21T02:44:35.737Z,99.90
2023-05-21T02:47:06.544Z,99.90
2023-05-21T02:49:34.908Z,99.90
2023-05-21T02:52:03.146Z,99.90
2023-05-21T02:54:31.372Z,99.90
2023-05-21T02:56:59.589Z,99.90
2023-05-21T02:59:27.843Z,99.90
2023-05-21T03:01:56.060Z,99.90
2023-05-21T03:04:28.279Z,99.90
2023-05-21T03:06:56.583Z,99.90
2023-05-21T03:09:25.067Z,99.90
2023-05-21T03:11:53.396Z,99.90
2023-05-21T03:14:21.881Z,99.90
2023-05-21T03:16:51.479Z,99.90
2023-05-21T03:19:20.906Z,99.90
2023-05-21T03:21:50.821Z,99.90
2023-05-21T03:24:19.063Z,99.90
2023-05-21T03:26:48.236Z,99.90
2023-05-21T03:29:16.455Z,99.90
2023-05-21T03:31:44.760Z,99.90
2023-05-21T03:34:13.000Z,99.90
2023-05-21T03:36:41.943Z,99.90
2023-05-21T03:39:11.573Z,99.90
2023-05-21T03:41:39.800Z,99.90
2023-05-21T03:44:08.178Z,99.90
2023-05-21T03:46:36.603Z,99.90
2023-05-21T03:49:05.045Z,99.90
2023-05-21T03:51:33.332Z,99.90
2023-05-21T03:54:02.346Z,99.90
2023-05-21T03:56:32.014Z,99.90
2023-05-21T03:59:00.335Z,99.90
2023-05-21T04:01:29.155Z,99.90
2023-05-21T04:03:57.543Z,99.90
2023-05-21T04:06:25.875Z,99.90
2023-05-21T04:08:54.095Z,99.90
2023-05-21T04:11:22.552Z,99.90
2023-05-21T04:13:52.194Z,99.90
2023-05-21T04:16:20.480Z,99.90
2023-05-21T04:18:49.251Z,99.90
2023-05-21T04:21:17.571Z,99.90
2023-05-21T04:23:46.067Z,99.90
2023-05-21T04:26:16.236Z,99.90
2023-05-21T04:28:45.862Z,99.90
2023-05-21T04:31:15.698Z,99.90
2023-05-21T04:33:46.076Z,99.90
2023-05-21T04:36:17.354Z,99.90
2023-05-21T04:38:45.852Z,99.90
2023-05-21T04:41:15.135Z,99.90
2023-05-21T04:43:44.317Z,99.90
2023-05-21T04:46:12.584Z,99.90
2023-05-21T04:48:42.313Z,99.90
2023-05-21T04:51:10.587Z,99.90
2023-05-21T04:53:38.866Z,99.90
2023-05-21T04:56:07.740Z,99.90
2023-05-21T04:58:35.986Z,99.90
2023-05-21T05:01:04.411Z,99.90
2023-05-21T05:03:32.733Z,99.90
2023-05-21T05:06:04.416Z,99.90
2023-05-21T05:08:32.792Z,99.90
2023-05-21T05:11:02.186Z,99.90
2023-05-21T05:13:30.502Z,99.90
2023-05-21T05:15:58.821Z,99.90
2023-05-21T05:18:27.159Z,99.90
2023-05-21T05:20:55.373Z,99.90
2023-05-21T05:23:25.023Z,99.90
2023-05-21T05:25:53.381Z,99.90
2023-05-21T05:28:21.863Z,99.90
2023-05-21T05:30:50.101Z,99.90
2023-05-21T05:33:18.434Z,99.90
2023-05-21T05:35:46.635Z,99.90
2023-05-21T05:38:14.989Z,99.90
2023-05-21T05:40:44.715Z,99.90
2023-05-21T05:43:13.046Z,99.90
2023-05-21T05:45:41.245Z,99.90
2023-05-21T05:48:09.546Z,99.90
2023-05-21T05:50:37.828Z,99.90
2023-05-21T05:53:07.267Z,99.90
2023-05-21T05:55:35.757Z,99.90
2023-05-21T05:58:05.478Z,99.90
2023-05-21T06:00:33.764Z,99.90
2023-05-21T06:03:02.242Z,99.90
2023-05-21T06:05:30.558Z,99.90
2023-05-21T06:07:59.032Z,99.90
2023-05-21T06:10:27.242Z,99.90
2023-05-21T06:12:55.543Z,99.90
2023-05-21T06:15:25.222Z,99.90
2023-05-21T06:17:53.528Z,99.90
2023-05-21T06:20:21.771Z,99.90
2023-05-21T06:22:50.041Z,99.90
2023-05-21T06:25:18.332Z,99.90
2023-05-21T06:27:46.550Z,99.90
2023-05-21T06:30:14.838Z,99.90
2023-05-21T06:32:44.852Z,99.90
2023-05-21T06:35:13.352Z,99.90
2023-05-21T06:37:41.583Z,99.90
2023-05-21T06:40:11.136Z,99.90
2023-05-21T06:42:39.335Z,99.90
2023-05-21T06:45:08.675Z,99.90
2023-05-21T06:47:36.914Z,99.90
2023-05-21T06:50:07.209Z,99.90
2023-05-21T06:52:35.413Z,99.90
2023-05-21T06:55:03.657Z,99.90
2023-05-21T06:57:34.717Z,99.90
2023-05-21T07:00:03.153Z,99.90
2023-05-21T07:02:31.498Z,99.90
2023-05-21T07:05:00.105Z,99.90
2023-05-21T07:07:29.791Z,99.90
2023-05-21T07:09:57.997Z,99.90
2023-05-21T07:12:26.259Z,99.90
2023-05-21T07:14:59.189Z,99.90
2023-05-21T07:17:30.289Z,99.90
2023-05-21T07:19:58.536Z,99.90
2023-05-21T07:22:28.315Z,99.90
2023-05-21T07:24:58.240Z,99.90
2023-05-21T07:27:26.512Z,99.90
2023-05-21T07:29:54.720Z,99.90
2023-05-21T07:32:23.000Z,99.90
2023-05-21T07:34:54.176Z,99.90
2023-05-21T07:37:22.835Z,99.90
2023-05-21T07:39:51.056Z,99.90
2023-05-21T07:42:20.718Z,99.90
2023-05-21T07:44:48.917Z,99.90
2023-05-21T07:47:17.118Z,99.90
2023-05-21T07:49:45.386Z,99.90
2023-05-21T07:52:13.624Z,99.90
2023-05-21T07:54:41.856Z,98.50
2023-05-21T07:57:10.070Z,97.20
2023-05-21T07:59:39.694Z,96.90
2023-05-21T08:02:08.502Z,97.30
2023-05-21T08:04:40.045Z,97.50
2023-05-21T08:07:09.789Z,96.00
2023-05-21T08:09:38.090Z,95.10
2023-05-21T08:12:06.925Z,93.70
2023-05-21T08:14:35.221Z,90.90
2023-05-21T08:17:05.086Z,91.90
2023-05-21T08:19:33.552Z,93.10
2023-05-21T08:22:02.218Z,92.90
2023-05-21T08:24:31.097Z,91.70
2023-05-21T08:26:59.380Z,91.00
2023-05-21T08:29:27.601Z,87.90
2023-05-21T08:31:58.292Z,87.60
2023-05-21T08:34:30.781Z,89.60
2023-05-21T08:36:59.018Z,90.10
2023-05-21T08:39:27.229Z,84.30
2023-05-21T08:41:59.619Z,81.80
2023-05-21T08:44:30.787Z,79.70
2023-05-21T08:47:00.372Z,75.60
2023-05-21T08:49:31.941Z,76.60
2023-05-21T08:52:01.030Z,75.60
2023-05-21T08:54:29.376Z,79.00
2023-05-21T08:56:59.438Z,79.70
2023-05-21T08:59:28.364Z,82.50
2023-05-21T09:01:57.703Z,79.20
2023-05-21T09:04:27.662Z,78.40
2023-05-21T09:06:59.374Z,78.80
2023-05-21T09:09:39.090Z,76.10
2023-05-21T09:12:09.038Z,79.10
2023-05-21T09:14:39.271Z,89.20
2023-05-21T09:17:07.667Z,77.90
2023-05-21T09:19:36.121Z,81.60
2023-05-21T09:22:06.224Z,74.10
2023-05-21T09:24:36.461Z,72.10
2023-05-21T09:27:08.289Z,70.90
2023-05-21T09:29:36.627Z,70.30
2023-05-21T09:32:08.346Z,69.60
2023-05-21T09:34:37.840Z,71.70
2023-05-21T09:37:19.870Z,66.70
2023-05-21T09:39:55.165Z,66.50
2023-05-21T09:42:26.349Z,67.10
2023-05-21T09:44:54.629Z,65.40
2023-05-21T09:47:23.005Z,59.10
2023-05-21T09:49:51.335Z,61.50
2023-05-21T09:52:28.380Z,61.20
2023-05-21T09:54:56.647Z,60.60
2023-05-21T09:57:26.317Z,58.80
2023-05-21T09:59:55.101Z,59.30
2023-05-21T10:02:25.002Z,57.50
2023-05-21T10:04:54.510Z,59.10
2023-05-21T10:07:27.212Z,58.70
2023-05-21T10:09:57.069Z,61.40
2023-05-21T10:12:26.230Z,62.10
2023-05-21T10:15:04.224Z,63.70
2023-05-21T10:17:32.737Z,63.50
2023-05-21T10:20:02.280Z,63.30
2023-05-21T10:22:32.564Z,63.80
2023-05-21T10:25:03.433Z,64.90
2023-05-21T10:27:33.443Z,65.60
2023-05-21T10:30:02.261Z,65.80
2023-05-21T10:32:37.345Z,61.90
2023-05-21T10:35:10.988Z,63.00
2023-05-21T10:37:42.576Z,59.10
2023-05-21T10:40:12.172Z,58.60
2023-05-21T10:43:12.852Z,57.90
2023-05-21T10:45:54.693Z,59.70
2023-05-21T10:48:36.916Z,55.70
2023-05-21T10:51:21.570Z,54.70
2023-05-21T10:54:10.059Z,56.20
2023-05-21T10:56:42.924Z,57.20
2023-05-21T10:59:22.210Z,58.40
2023-05-21T11:01:52.930Z,61.70
2023-05-21T11:04:24.643Z,68.30
2023-05-21T11:06:53.063Z,67.30
2023-05-21T11:09:22.956Z,66.20
2023-05-21T11:11:52.815Z,66.70
2023-05-21T11:14:39.382Z,66.70
2023-05-21T11:17:13.776Z,69.50
2023-05-21T11:19:47.403Z,70.50
2023-05-21T11:22:23.643Z,73.40
2023-05-21T11:24:54.289Z,73.30
2023-05-21T11:27:34.566Z,74.80
2023-05-21T11:30:06.627Z,75.80
2023-05-21T11:32:39.573Z,77.70
2023-05-21T11:35:08.905Z,82.00
2023-05-21T11:37:41.224Z,78.40
2023-05-21T11:40:26.078Z,76.70
2023-05-21T11:42:56.251Z,77.60
2023-05-21T11:45:30.861Z,74.50
2023-05-21T11:47:59.541Z,77.00
2023-05-21T11:50:30.597Z,75.50
2023-05-21T11:53:03.312Z,79.10
2023-05-21T11:55:33.213Z,79.20
2023-05-21T11:58:01.841Z,81.50
2023-05-21T12:00:34.240Z,85.80
2023-05-21T12:03:02.718Z,82.80
2023-05-21T12:05:32.452Z,83.50
2023-05-21T12:08:00.797Z,82.30
2023-05-21T12:10:31.779Z,80.80
2023-05-21T12:13:05.320Z,85.40
2023-05-21T12:15:33.809Z,89.60
2023-05-21T12:18:02.269Z,84.70
2023-05-21T12:20:30.615Z,82.70
2023-05-21T12:23:00.471Z,84.40
2023-05-21T12:25:32.874Z,77.90
2023-05-21T12:28:03.647Z,80.20
2023-05-21T12:30:32.191Z,65.80
2023-05-21T12:33:02.312Z,61.20
2023-05-21T12:35:32.183Z,59.70
2023-05-21T12:38:03.049Z,52.50
2023-05-21T12:40:39.049Z,52.10
2023-05-21T12:43:12.362Z,49.80
2023-05-21T12:45:41.125Z,47.20
2023-05-21T12:48:12.713Z,46.20
2023-05-21T12:50:42.215Z,45.50
2023-05-21T12:53:12.168Z,45.00
2023-05-21T12:55:41.354Z,45.30
2023-05-21T12:58:17.697Z,47.00
2023-05-21T13:00:46.122Z,49.00
2023-05-21T13:03:14.466Z,49.10
2023-05-21T13:05:46.136Z,49.50
2023-05-21T13:08:16.946Z,52.60
2023-05-21T13:10:45.185Z,51.90
2023-05-21T13:13:14.797Z,54.20
2023-05-21T13:15:43.103Z,55.50
2023-05-21T13:18:12.426Z,56.70
2023-05-21T13:20:40.693Z,59.40
2023-05-21T13:23:11.276Z,57.20
2023-05-21T13:25:39.996Z,58.50
2023-05-21T13:28:10.342Z,60.00
2023-05-21T13:30:40.204Z,63.70
2023-05-21T13:33:08.688Z,65.10
2023-05-21T13:35:37.664Z,64.00
2023-05-21T13:38:05.872Z,64.80
2023-05-21T13:40:35.488Z,61.40
2023-05-21T13:43:05.667Z,63.20
2023-05-21T13:45:34.479Z,65.20
2023-05-21T13:48:04.157Z,66.30
2023-05-21T13:50:32.437Z,68.40
2023-05-21T13:53:03.419Z,68.70
2023-05-21T13:55:31.685Z,68.80
2023-05-21T13:57:59.883Z,73.50
2023-05-21T14:00:28.136Z,73.60
2023-05-21T14:02:56.519Z,71.30
2023-05-21T14:05:26.365Z,72.30
2023-05-21T14:07:54.643Z,68.90
2023-05-21T14:10:23.060Z,69.10
2023-05-21T14:12:52.049Z,71.40
2023-05-21T14:15:20.273Z,71.70
2023-05-21T14:17:48.671Z,70.60
2023-05-21T14:20:16.919Z,68.80
2023-05-21T14:22:46.568Z,68.00
2023-05-21T14:25:14.808Z,64.40
2023-05-21T14:27:43.062Z,61.40
2023-05-21T14:30:12.046Z,57.80
2023-05-21T14:32:40.276Z,55.10
2023-05-21T14:35:08.971Z,57.00
2023-05-21T14:37:37.273Z,56.90
2023-05-21T14:40:09.359Z,59.00
2023-05-21T14:42:37.677Z,60.30
2023-05-21T14:45:18.040Z,62.70
2023-05-21T14:47:48.744Z,61.40
2023-05-21T14:50:18.552Z,63.80
2023-05-21T14:52:47.265Z,65.00
2023-05-21T14:55:18.550Z,65.60
2023-05-21T14:57:46.822Z,66.90
2023-05-21T15:00:18.234Z,65.30
2023-05-21T15:02:46.547Z,67.00
2023-05-21T15:05:14.797Z,67.90
2023-05-21T15:07:49.123Z,67.90
2023-05-21T15:10:18.945Z,69.60
2023-05-21T15:12:47.156Z,72.40
2023-05-21T15:15:17.079Z,73.90
2023-05-21T15:17:45.668Z,77.10
2023-05-21T15:20:14.094Z,79.40
2023-05-21T15:22:42.444Z,80.30
2023-05-21T15:25:11.574Z,79.90
2023-05-21T15:27:44.206Z,80.60
2023-05-21T15:30:13.168Z,82.10
2023-05-21T15:32:41.438Z,83.90
2023-05-21T15:35:16.895Z,84.10
2023-05-21T15:37:45.591Z,85.10
2023-05-21T15:40:14.835Z,87.50
2023-05-21T15:42:44.477Z,89.40
2023-05-21T15:45:13.004Z,90.10
2023-05-21T15:47:42.831Z,91.70
2023-05-21T15:50:12.457Z,92.30
2023-05-21T15:52:40.742Z,92.50
2023-05-21T15:55:09.859Z,91.70
2023-05-21T15:57:38.083Z,92.40
2023-05-21T16:00:09.498Z,92.00
2023-05-21T16:02:38.113Z,91.60
2023-05-21T16:05:06.749Z,91.70
2023-05-21T16:07:37.061Z,90.70
2023-05-21T16:10:07.187Z,91.60
2023-05-21T16:12:36.440Z,91.70
2023-05-21T16:15:05.138Z,91.80
2023-05-21T16:17:34.758Z,92.50
2023-05-21T16:20:03.013Z,94.60
2023-05-21T16:22:31.259Z,93.20
2023-05-21T16:24:59.553Z,92.90
2023-05-21T16:27:27.770Z,93.40
2023-05-21T16:29:56.223Z,93.60
2023-05-21T16:32:24.593Z,94.70
2023-05-21T16:34:54.321Z,93.20
2023-05-21T16:37:25.857Z,93.80
2023-05-21T16:39:54.092Z,94.00
2023-05-21T16:42:25.090Z,93.90
2023-05-21T16:44:56.526Z,92.50
2023-05-21T16:47:25.139Z,92.60
2023-05-21T16:49:55.846Z,94.60
2023-05-21T16:52:25.000Z,95.40
2023-05-21T16:54:56.035Z,96.50
2023-05-21T16:57:24.260Z,98.10
2023-05-21T16:59:52.477Z,99.90
2023-05-21T17:02:24.349Z,99.50
2023-05-21T17:04:54.028Z,99.90
2023-05-21T17:07:28.112Z,99.90
2023-05-21T17:09:56.308Z,99.90
2023-05-21T17:12:24.612Z,99.90
2023-05-21T17:14:53.506Z,99.90
2023-05-21T17:17:21.713Z,98.90
2023-05-21T17:19:49.937Z,98.10
2023-05-21T17:22:22.444Z,96.90
2023-05-21T17:24:50.715Z,96.50
2023-05-21T17:27:22.138Z,96.80
2023-05-21T17:29:50.533Z,95.30
2023-05-21T17:32:20.835Z,95.30
2023-05-21T17:34:49.043Z,95.60
2023-05-21T17:37:17.352Z,96.10
2023-05-21T17:39:47.091Z,97.70
2023-05-21T17:42:15.327Z,97.90
2023-05-21T17:44:43.603Z,98.80
2023-05-21T17:47:11.998Z,99.50
2023-05-21T17:49:40.335Z,99.90
2023-05-21T17:52:17.478Z,99.90
2023-05-21T17:54:47.151Z,99.90
2023-05-21T17:57:16.116Z,99.90
2023-05-21T17:59:47.426Z,99.90
2023-05-21T18:02:15.686Z,99.90
2023-05-21T18:04:43.973Z,99.90
2023-05-21T18:07:12.212Z,99.90
2023-05-21T18:09:43.167Z,99.90
2023-05-21T18:12:12.923Z,99.90
2023-05-21T18:14:41.149Z,99.90
2023-05-21T18:17:09.489Z,99.90
2023-05-21T18:19:43.757Z,99.90
2023-05-21T18:22:13.011Z,99.90
2023-05-21T18:24:44.223Z,99.90
2023-05-21T18:27:13.859Z,99.90
2023-05-21T18:29:42.076Z,99.90
2023-05-21T18:32:12.613Z,99.90
2023-05-21T18:34:42.839Z,99.90
2023-05-21T18:37:11.136Z,99.90
2023-05-21T18:39:41.934Z,99.90
2023-05-21T18:42:15.198Z,99.90
2023-05-21T18:44:46.041Z,99.90
2023-05-21T18:47:14.687Z,99.90
2023-05-21T18:49:42.915Z,99.90
2023-05-21T18:52:11.213Z,99.90
2023-05-21T18:54:39.445Z,99.90
2023-05-21T18:57:16.538Z,99.90
2023-05-21T18:59:44.902Z,99.90
2023-05-21T19:02:16.405Z,99.90
2023-05-21T19:04:44.706Z,99.90
2023-05-21T19:07:16.955Z,99.90
2023-05-21T19:09:45.509Z,99.90
2023-05-21T19:12:15.252Z,99.90
2023-05-21T19:14:45.029Z,99.90
2023-05-21T19:17:13.694Z,99.90
2023-05-21T19:19:41.972Z,99.90
2023-05-21T19:22:10.416Z,99.90
2023-05-21T19:24:38.641Z,99.90
2023-05-21T19:27:07.292Z,99.90
2023-05-21T19:29:36.991Z,99.90
2023-05-21T19:32:05.800Z,99.90
2023-05-21T19:34:35.619Z,99.90
2023-05-21T19:37:04.199Z,99.90
2023-05-21T19:39:38.458Z,99.90
2023-05-21T19:42:16.230Z,99.90
2023-05-21T19:44:49.231Z,99.90
2023-05-21T19:47:17.548Z,99.90
2023-05-21T19:49:48.518Z,99.90
2023-05-21T19:52:19.616Z,99.90
2023-05-21T19:54:47.907Z,99.90
2023-05-21T19:57:16.652Z,99.90
2023-05-21T19:59:46.380Z,99.90
2023-05-21T20:02:17.101Z,99.90
2023-05-21T20:04:45.429Z,99.90
2023-05-21T20:07:13.718Z,99.90
2023-05-21T20:09:45.049Z,99.90
2023-05-21T20:12:13.378Z,99.90
2023-05-21T20:14:41.808Z,99.90
2023-05-21T20:17:11.872Z,99.90
2023-05-21T20:19:44.115Z,99.90
2023-05-21T20:22:12.358Z,99.90
2023-05-21T20:24:46.568Z,99.90
2023-05-21T20:27:18.599Z,99.90
2023-05-21T20:29:46.903Z,99.90
2023-05-21T20:32:16.695Z,99.90
2023-05-21T20:34:58.802Z,99.90
2023-05-21T20:37:34.701Z,99.90
2023-05-21T20:40:02.960Z,99.90
2023-05-21T20:42:34.790Z,99.90
2023-05-21T20:45:04.618Z,99.90
2023-05-21T20:47:34.294Z,99.90
2023-05-21T20:50:03.655Z,99.90
2023-05-21T20:52:32.147Z,99.90
2023-05-21T20:55:00.602Z,99.90
2023-05-21T20:57:29.610Z,99.90
2023-05-21T21:00:00.544Z,99.90
2023-05-21T21:02:28.948Z,99.90
2023-05-21T21:04:59.905Z,99.90
2023-05-21T21:07:30.052Z,99.90
2023-05-21T21:09:58.248Z,99.90
2023-05-21T21:12:27.055Z,99.90
2023-05-21T21:14:58.327Z,99.90
2023-05-21T21:17:26.696Z,99.90
2023-05-21T21:19:55.120Z,99.90
2023-05-21T21:22:24.912Z,99.90
2023-05-21T21:24:53.830Z,99.90
2023-05-21T21:27:22.126Z,99.90
2023-05-21T21:29:50.367Z,99.90
2023-05-21T21:32:18.627Z,99.90
2023-05-21T21:34:47.654Z,99.90
2023-05-21T21:37:16.465Z,99.90
2023-05-21T21:39:46.125Z,99.90
2023-05-21T21:42:14.957Z,99.90
2023-05-21T21:44:43.258Z,99.90
2023-05-21T21:47:11.651Z,99.90
2023-05-21T21:49:40.040Z,99.90
2023-05-21T21:52:08.414Z,99.90
2023-05-21T21:54:36.632Z,99.90
2023-05-21T21:57:06.693Z,99.90
2023-05-21T21:59:35.753Z,99.90
2023-05-21T22:02:04.173Z,99.90
2023-05-21T22:04:32.442Z,99.90
2023-05-21T22:07:02.250Z,99.90
2023-05-21T22:09:30.752Z,99.90
2023-05-21T22:11:59.525Z,99.90
2023-05-21T22:14:29.154Z,99.90
2023-05-21T22:16:57.379Z,99.90
2023-05-21T22:19:25.726Z,99.90
2023-05-21T22:21:55.210Z,99.90
2023-05-21T22:24:31.863Z,99.90
2023-05-21T22:27:00.625Z,99.90
2023-05-21T22:29:30.343Z,99.90
2023-05-21T22:31:58.638Z,99.90
2023-05-21T22:34:26.907Z,99.90
2023-05-21T22:36:55.165Z,99.90
2023-05-21T22:39:23.399Z,99.90
2023-05-21T22:41:51.690Z,99.90
2023-05-21T22:44:20.717Z,99.90
2023-05-21T22:46:52.054Z,99.90
2023-05-21T22:49:20.760Z,99.90
2023-05-21T22:51:50.991Z,99.90
2023-05-21T22:54:19.330Z,99.90
2023-05-21T22:56:49.257Z,99.90
2023-05-21T22:59:17.571Z,99.90
2023-05-21T23:01:45.827Z,99.90
2023-05-21T23:04:15.569Z,99.90
2023-05-21T23:06:44.020Z,99.90
2023-05-21T23:09:12.881Z,99.90
2023-05-21T23:11:41.217Z,99.90
2023-05-21T23:14:09.487Z,99.90
2023-05-21T23:16:37.859Z,99.90
2023-05-21T23:19:06.631Z,99.90
2023-05-21T23:21:36.449Z,99.90
2023-05-21T23:24:04.877Z,99.90
2023-05-21T23:26:33.102Z,99.90
2023-05-21T23:29:01.680Z,99.90
2023-05-21T23:31:30.246Z,99.90
2023-05-21T23:33:58.464Z,99.90
2023-05-21T23:36:26.741Z,99.90
2023-05-21T23:38:56.368Z,99.90
2023-05-21T23:41:25.060Z,99.90
2023-05-21T23:43:53.297Z,99.90
2023-05-21T23:46:21.586Z,99.90
2023-05-21T23:48:49.837Z,99.90
2023-05-21T23:51:19.259Z,99.90
2023-05-21T23:53:47.571Z,99.90
2023-05-21T23:56:17.202Z,99.90
2023-05-21T23:58:45.461Z,99.90
